createdAt,value
2019-01-15T00:01:09.468Z,100191.91
2019-01-15T00:03:42.094Z,100188.47
2019-01-15T00:06:21.855Z,100187.53
2019-01-15T00:08:53.403Z,100190.95
2019-01-15T00:11:27.343Z,100181.39
2019-01-15T00:13:57.463Z,100187.44
2019-01-15T00:16:29.116Z,100193.72
2019-01-15T00:19:02.818Z,100194.60
2019-01-15T00:21:33.637Z,100197.20
2019-01-15T00:24:04.523Z,100184.94
2019-01-15T00:26:41.694Z,100189.84
2019-01-15T00:29:13.775Z,100184.03
2019-01-15T00:31:48.555Z,100184.67
2019-01-15T00:34:19.977Z,100188.17
2019-01-15T00:36:54.025Z,100184.25
2019-01-15T00:39:28.129Z,100186.56
2019-01-15T00:41:58.934Z,100182.61
2019-01-15T00:44:34.223Z,100185.26
2019-01-15T00:47:09.230Z,100190.00
2019-01-15T00:49:44.948Z,100194.41
2019-01-15T00:52:21.790Z,100185.77
2019-01-15T00:54:58.069Z,100191.86
2019-01-15T00:57:29.354Z,100196.16
2019-01-15T01:00:06.034Z,100194.92
2019-01-15T01:02:40.231Z,100197.98
2019-01-15T01:05:11.686Z,100195.30
2019-01-15T01:07:46.635Z,100194.43
2019-01-15T01:10:33.513Z,100197.91
2019-01-15T01:13:05.510Z,100201.53
2019-01-15T01:15:41.071Z,100198.47
2019-01-15T01:18:17.022Z,100201.55
2019-01-15T01:21:11.016Z,100198.47
2019-01-15T01:24:20.244Z,100202.02
2019-01-15T01:26:58.084Z,100197.75
2019-01-15T01:29:33.764Z,100194.72
2019-01-15T01:32:05.002Z,100203.37
2019-01-15T01:34:43.038Z,100197.77
2019-01-15T01:37:15.870Z,100199.13
2019-01-15T01:39:48.782Z,100202.17
2019-01-15T01:42:21.558Z,100205.27
2019-01-15T01:44:56.623Z,100197.88
2019-01-15T01:47:27.510Z,100200.48
2019-01-15T01:50:04.862Z,100200.08
2019-01-15T01:52:51.100Z,100204.42
2019-01-15T01:55:22.272Z,100202.24
2019-01-15T01:57:55.781Z,100193.20
2019-01-15T02:00:27.054Z,100195.85
2019-01-15T02:02:59.026Z,100201.09
2019-01-15T02:05:30.475Z,100212.44
2019-01-15T02:08:01.503Z,100210.27
2019-01-15T02:10:44.764Z,100203.34
2019-01-15T02:13:07.296Z,100210.77
2019-01-15T02:15:38.311Z,100201.66
2019-01-15T02:18:11.006Z,100211.27
2019-01-15T02:20:49.938Z,100206.94
2019-01-15T02:23:24.057Z,100211.73
2019-01-15T02:25:55.286Z,100211.76
2019-01-15T02:28:26.517Z,100214.33
2019-01-15T02:30:58.477Z,100218.26
2019-01-15T02:33:30.237Z,100218.73
2019-01-15T02:36:03.626Z,100215.69
2019-01-15T02:38:34.772Z,100219.21
2019-01-15T02:41:07.548Z,100222.70
2019-01-15T02:43:50.508Z,100226.55
2019-01-15T04:45:25.179Z,100294.97
2019-01-15T04:47:56.564Z,100293.61
2019-01-15T04:50:27.654Z,100304.52
2019-01-15T04:53:04.888Z,100303.70
2019-01-15T04:55:35.772Z,100300.22
2019-01-15T05:41:18.300Z,100306.00
2019-01-15T05:44:17.545Z,100306.02
2019-01-15T05:50:26.448Z,100301.21
2019-01-15T05:53:03.296Z,100296.83
2019-01-15T05:55:36.863Z,100303.83
2019-01-15T05:58:07.954Z,100309.50
2019-01-15T06:00:38.848Z,100312.57
2019-01-15T06:03:10.072Z,100316.48
2019-01-15T06:05:42.287Z,100321.23
2019-01-15T06:08:13.151Z,100327.39
2019-01-15T06:10:52.950Z,100329.53
2019-01-15T06:13:24.183Z,100315.63
2019-01-15T06:16:00.078Z,100319.09
2019-01-15T06:18:30.944Z,100309.07
2019-01-15T06:21:01.751Z,100317.73
2019-01-15T06:23:32.660Z,100313.37
2019-01-15T06:26:03.599Z,100310.73
2019-01-15T06:28:34.918Z,100293.86
2019-01-15T06:31:06.624Z,100295.16
2019-01-15T06:33:37.629Z,100301.17
2019-01-15T06:36:08.555Z,100293.30
2019-01-15T06:38:39.783Z,100298.56
2019-01-15T06:41:12.734Z,100301.58
2019-01-15T06:43:49.740Z,100302.09
2019-01-15T06:46:15.872Z,100304.28
2019-01-15T06:48:48.169Z,100304.70
2019-01-15T06:51:19.101Z,100314.28
2019-01-15T06:53:50.086Z,100315.17
2019-01-15T06:56:21.146Z,100310.83
2019-01-15T06:58:51.967Z,100305.14
2019-01-15T07:01:22.887Z,100299.46
2019-01-15T07:03:53.811Z,100309.08
2019-01-15T07:06:24.733Z,100306.02
2019-01-15T07:08:55.767Z,100293.39
2019-01-15T07:11:26.631Z,100302.13
2019-01-15T07:13:58.640Z,100293.42
2019-01-15T07:16:29.949Z,100297.80
2019-01-15T07:19:01.001Z,100294.33
2019-01-15T07:21:32.199Z,100295.22
2019-01-15T07:24:03.152Z,100296.52
2019-01-15T07:26:34.146Z,100302.22
2019-01-15T07:29:05.128Z,100310.51
2019-01-15T07:31:36.024Z,100313.10
2019-01-15T07:34:07.105Z,100314.46
2019-01-15T07:36:37.986Z,100322.75
2019-01-15T07:39:10.771Z,100316.67
2019-01-15T07:41:41.665Z,100312.30
2019-01-15T07:44:12.491Z,100315.81
2019-01-15T07:46:43.663Z,100308.86
2019-01-15T07:49:14.627Z,100311.91
2019-01-15T07:51:45.456Z,100313.25
2019-01-15T07:54:16.379Z,100315.00
2019-01-15T07:56:47.332Z,100304.12
2019-01-15T07:59:18.278Z,100310.66
2019-01-15T08:01:49.363Z,100305.84
2019-01-15T08:04:20.179Z,100305.02
2019-01-15T08:06:51.105Z,100298.02
2019-01-15T08:09:22.003Z,100290.17
2019-01-15T08:11:53.239Z,100294.53
2019-01-15T08:14:24.091Z,100281.02
2019-01-15T08:16:54.993Z,100281.47
2019-01-15T08:19:25.835Z,100283.63
2019-01-15T08:21:56.817Z,100292.81
2019-01-15T08:24:27.697Z,100291.50
2019-01-15T08:26:58.638Z,100297.64
2019-01-15T08:29:29.513Z,100305.91
2019-01-15T08:32:00.432Z,100313.34
2019-01-15T08:34:31.267Z,100296.33
2019-01-15T08:37:02.198Z,100301.14
2019-01-15T08:39:33.095Z,100298.09
2019-01-15T08:42:04.126Z,100288.91
2019-01-15T08:44:35.566Z,100276.70
2019-01-15T08:47:06.517Z,100279.31
2019-01-15T08:49:37.341Z,100286.71
2019-01-15T08:52:08.177Z,100289.34
2019-01-15T08:54:39.061Z,100291.52
2019-01-15T08:57:09.960Z,100275.35
2019-01-15T08:59:40.833Z,100279.31
2019-01-15T09:02:11.683Z,100279.72
2019-01-15T09:04:42.582Z,100288.88
2019-01-15T09:07:13.410Z,100278.42
2019-01-15T09:09:44.310Z,100268.38
2019-01-15T09:12:15.254Z,100267.53
2019-01-15T09:14:46.210Z,100263.16
2019-01-15T09:17:17.092Z,100265.77
2019-01-15T09:19:48.011Z,100266.63
2019-01-15T09:22:18.898Z,100264.89
2019-01-15T09:24:49.808Z,100261.42
2019-01-15T09:27:20.812Z,100256.59
2019-01-15T09:29:53.348Z,100254.84
2019-01-15T09:32:26.962Z,100240.84
2019-01-15T09:34:58.055Z,100244.28
2019-01-15T09:37:29.315Z,100242.56
2019-01-15T09:40:00.257Z,100250.01
2019-01-15T09:42:31.234Z,100261.82
2019-01-15T09:45:02.136Z,100246.53
2019-01-15T09:47:33.326Z,100245.22
2019-01-15T09:50:04.854Z,100245.67
2019-01-15T09:52:36.258Z,100251.77
2019-01-15T09:55:08.510Z,100267.48
2019-01-15T09:57:39.566Z,100272.31
2019-01-15T10:00:10.682Z,100275.80
2019-01-15T10:02:41.606Z,100280.59
2019-01-15T10:05:12.546Z,100287.98
2019-01-15T10:07:43.516Z,100287.08
2019-01-15T10:10:15.223Z,100280.50
2019-01-15T10:12:46.190Z,100282.20
2019-01-15T10:15:18.563Z,100281.75
2019-01-15T10:17:49.446Z,100270.37
2019-01-15T10:20:20.641Z,100264.72
2019-01-15T10:22:51.521Z,100264.31
2019-01-15T10:25:26.842Z,100259.12
2019-01-15T10:27:59.002Z,100256.09
2019-01-15T10:31:19.131Z,100258.66
2019-01-15T10:34:02.928Z,100262.62
2019-01-15T10:36:31.220Z,100263.48
2019-01-15T10:39:02.012Z,100262.59
2019-01-15T10:41:32.850Z,100269.98
2019-01-15T10:44:03.671Z,100260.84
2019-01-15T10:46:34.594Z,100266.94
2019-01-15T10:49:05.469Z,100262.55
2019-01-15T10:51:36.340Z,100272.95
2019-01-15T10:54:14.902Z,100262.12
2019-01-15T10:56:47.274Z,100263.90
2019-01-15T10:59:36.282Z,100263.82
2019-01-15T11:02:08.878Z,100262.14
2019-01-15T11:05:25.458Z,100258.23
2019-01-15T11:08:01.464Z,100246.04
2019-01-15T11:10:42.285Z,100249.96
2019-01-15T11:13:17.243Z,100246.07
2019-01-15T11:15:54.717Z,100256.08
2019-01-15T11:18:23.365Z,100251.73
2019-01-15T11:20:56.686Z,100234.73
2019-01-15T11:23:32.189Z,100236.52
2019-01-15T11:26:05.302Z,100235.66
2019-01-15T11:28:39.345Z,100244.81
2019-01-15T11:31:10.206Z,100246.09
2019-01-15T11:33:43.144Z,100231.28
2019-01-15T11:36:14.354Z,100227.39
2019-01-15T11:38:52.457Z,100235.67
2019-01-15T11:41:23.487Z,100239.59
2019-01-15T11:43:54.673Z,100241.78
2019-01-15T11:46:28.609Z,100244.37
2019-01-15T11:49:00.785Z,100231.75
2019-01-15T11:51:33.957Z,100240.03
2019-01-15T11:54:09.468Z,100238.30
2019-01-15T11:56:40.666Z,100237.85
2019-01-15T11:59:17.001Z,100248.77
2019-01-15T12:01:53.940Z,100224.75
2019-01-15T12:04:47.143Z,100229.13
2019-01-15T12:07:35.771Z,100229.12
2019-01-15T12:10:32.758Z,100231.30
2019-01-15T12:13:22.473Z,100231.73
2019-01-15T12:16:06.051Z,100220.83
2019-01-15T12:18:57.917Z,100220.41
2019-01-15T12:21:59.539Z,100228.67
2019-01-15T12:25:15.905Z,100219.06
2019-01-15T12:28:03.197Z,100210.34
2019-01-15T12:30:59.186Z,100212.92
2019-01-15T12:33:58.669Z,100208.99
2019-01-15T12:36:49.369Z,100213.36
2019-01-15T12:39:43.514Z,100208.14
2019-01-15T12:42:43.289Z,100212.52
2019-01-15T12:45:38.103Z,100202.48
2019-01-15T12:48:26.935Z,100199.86
2019-01-15T12:51:19.493Z,100190.29
2019-01-15T12:54:18.225Z,100195.53
2019-01-15T12:57:19.307Z,100195.09
2019-01-15T13:00:12.621Z,100187.23
2019-01-15T13:03:26.774Z,100193.80
2019-01-15T13:06:14.989Z,100189.42
2019-01-15T13:09:09.166Z,100188.54
2019-01-15T13:12:11.141Z,100191.16
2019-01-15T13:15:04.922Z,100184.62
2019-01-15T13:17:50.717Z,100190.31
2019-01-15T13:20:42.378Z,100187.70
2019-01-15T13:23:50.763Z,100182.86
2019-01-15T13:26:41.408Z,100182.41
2019-01-15T13:29:37.377Z,100174.11
2019-01-15T13:32:26.776Z,100177.20
2019-01-15T13:35:16.960Z,100164.53
2019-01-15T13:38:07.172Z,100161.90
2019-01-15T13:40:56.862Z,100158.86
2019-01-15T13:43:48.229Z,100157.99
2019-01-15T13:50:33.093Z,100149.28
2019-01-15T13:53:25.819Z,100148.82
2019-01-15T13:56:18.624Z,100137.48
2019-01-15T13:59:01.192Z,100136.58
2019-01-15T14:01:51.111Z,100137.07
2019-01-15T14:04:43.748Z,100125.28
2019-01-15T14:07:32.104Z,100121.79
2019-01-15T14:10:20.284Z,100124.44
2019-01-15T14:13:15.828Z,100113.53
2019-01-15T14:16:11.045Z,100104.79
2019-01-15T14:19:00.723Z,100109.17
2019-01-15T14:21:50.331Z,100119.63
2019-01-15T14:24:40.100Z,100112.20
2019-01-15T14:27:48.097Z,100118.33
2019-01-15T14:30:39.136Z,100116.59
2019-01-15T14:33:37.677Z,100118.34
2019-01-15T14:36:27.340Z,100117.86
2019-01-15T14:39:29.438Z,100103.94
2019-01-15T14:42:17.758Z,100093.05
2019-01-15T14:45:12.129Z,100108.28
2019-01-15T14:48:06.422Z,100113.52
2019-01-15T14:50:55.264Z,100107.39
2019-01-15T14:53:54.039Z,100106.95
2019-01-15T14:56:36.712Z,100104.76
2019-01-15T14:59:41.246Z,100103.88
2019-01-15T15:02:30.000Z,100095.59
2019-01-15T15:05:25.848Z,100088.20
2019-01-15T15:08:34.814Z,100094.26
2019-01-15T15:11:36.429Z,100083.31
2019-01-15T15:14:36.154Z,100085.97
2019-01-15T15:18:01.150Z,100084.22
2019-01-15T15:20:50.989Z,100083.40
2019-01-15T15:23:44.913Z,100085.14
2019-01-15T15:29:42.724Z,100075.08
2019-01-15T15:32:31.046Z,100078.14
2019-01-15T15:35:21.106Z,100072.46
2019-01-15T15:38:40.911Z,100071.53
2019-01-15T15:45:44.010Z,100067.13
2019-01-15T15:48:59.183Z,100071.13
2019-01-15T15:51:57.261Z,100058.91
2019-01-15T15:55:27.185Z,100059.81
2019-01-15T15:59:06.966Z,100037.08
2019-01-15T16:01:51.674Z,100055.41
2019-01-15T16:05:08.503Z,100051.05
2019-01-15T16:07:57.072Z,100051.92
2019-01-15T16:11:03.283Z,100056.69
2019-01-15T16:13:46.599Z,100046.22
2019-01-15T16:16:49.711Z,100044.91
2019-01-15T16:22:48.361Z,100041.41
2019-01-15T16:25:48.993Z,100037.88
2019-01-15T16:29:01.399Z,100002.13
2019-01-15T16:32:01.713Z,100036.05
2019-01-15T16:35:06.006Z,99961.67
2019-01-15T16:38:06.741Z,100035.73
2019-01-15T16:41:05.963Z,100018.71
2019-01-15T16:43:55.469Z,100012.20
2019-01-15T16:46:44.053Z,100011.30
2019-01-15T16:49:52.146Z,100012.12
2019-01-15T16:52:42.118Z,100013.47
2019-01-15T16:55:38.725Z,100006.02
2019-01-15T16:58:21.202Z,100003.39
2019-01-15T17:01:09.894Z,100001.25
2019-01-15T17:04:00.887Z,100000.77
2019-01-15T17:06:59.430Z,99999.38
2019-01-15T17:09:45.983Z,99996.20
2019-01-15T17:12:41.469Z,99985.34
2019-01-15T17:15:35.004Z,99985.33
2019-01-15T17:18:25.380Z,99987.96
2019-01-15T17:21:27.270Z,99981.85
2019-01-15T17:24:16.496Z,99979.11
2019-01-15T17:27:09.239Z,99987.52
2019-01-15T17:30:19.524Z,99989.45
2019-01-15T17:33:31.503Z,99977.59
2019-01-15T17:36:20.800Z,99977.50
2019-01-15T17:39:09.221Z,99983.09
2019-01-15T17:41:51.150Z,99969.56
2019-01-15T17:50:02.877Z,99978.30
2019-01-15T17:52:57.974Z,99966.14
2019-01-15T17:55:52.990Z,99962.58
2019-01-15T17:58:47.990Z,99970.08
2019-01-15T18:02:01.230Z,99956.08
2019-01-15T18:04:48.382Z,99956.16
2019-01-15T18:07:54.039Z,99962.36
2019-01-15T18:11:10.840Z,99965.33
2019-01-15T18:19:30.629Z,99968.91
2019-01-15T18:20:54.167Z,99962.21
2019-01-15T18:24:11.721Z,99965.28
2019-01-15T18:27:01.733Z,99959.14
2019-01-15T18:30:21.022Z,99959.02
2019-01-15T18:33:28.679Z,99955.43
2019-01-15T18:36:17.772Z,99953.65
2019-01-15T18:39:07.638Z,99954.09
2019-01-15T18:42:09.544Z,99955.05
2019-01-15T18:45:15.002Z,99963.70
2019-01-15T18:48:04.889Z,99955.24
2019-01-15T18:51:05.320Z,99952.69
2019-01-15T18:54:06.734Z,99952.18
2019-01-15T18:57:09.618Z,99951.75
2019-01-15T19:00:17.358Z,99950.41
2019-01-15T19:03:09.429Z,99955.58
2019-01-15T19:05:59.449Z,99960.11
2019-01-15T19:08:57.286Z,99956.41
2019-01-15T19:12:00.149Z,99967.24
2019-01-15T19:14:54.817Z,99946.62
2019-01-15T19:17:47.766Z,99964.05
2019-01-15T19:20:48.536Z,99946.23
2019-01-15T19:23:45.002Z,99948.54
2019-01-15T19:26:46.818Z,99953.56
2019-01-15T19:29:55.364Z,99949.70
2019-01-15T19:32:45.343Z,99952.21
2019-01-15T19:35:39.821Z,99960.75
2019-01-15T19:38:34.510Z,99952.33
2019-01-15T19:41:25.630Z,99967.20
2019-01-15T19:44:39.013Z,99967.56
2019-01-15T19:47:36.614Z,99966.64
2019-01-15T19:50:38.526Z,99965.39
2019-01-15T19:53:31.940Z,99968.40
2019-01-15T19:56:24.988Z,99964.73
2019-01-15T19:59:33.571Z,99979.66
2019-01-15T20:02:29.164Z,99977.48
2019-01-15T20:06:03.120Z,99985.74
2019-01-15T20:08:58.541Z,99984.31
2019-01-15T20:12:24.277Z,99853.06
2019-01-15T20:14:54.961Z,99982.12
2019-01-15T20:18:08.717Z,99989.58
2019-01-15T20:21:00.844Z,99981.42
2019-01-15T20:23:51.266Z,100001.25
2019-01-15T20:26:41.203Z,100006.52
2019-01-15T20:29:30.885Z,99974.02
2019-01-15T20:32:41.645Z,99987.33
2019-01-15T20:35:30.313Z,99985.85
2019-01-15T20:38:26.269Z,99986.34
2019-01-15T20:41:23.074Z,99989.87
2019-01-15T20:44:21.761Z,99990.73
2019-01-15T20:47:11.602Z,99989.19
2019-01-15T20:50:01.855Z,99992.64
2019-01-15T20:52:51.544Z,99991.09
2019-01-15T20:55:41.241Z,99997.41
2019-01-15T20:58:31.809Z,100004.41
2019-01-15T21:01:10.156Z,99995.86
2019-01-15T21:04:08.944Z,99995.11
2019-01-15T21:07:01.743Z,99989.02
2019-01-15T21:09:56.171Z,99998.05
2019-01-15T21:12:50.856Z,100001.04
2019-01-15T21:15:53.084Z,100006.80
2019-01-15T21:18:51.440Z,99999.86
2019-01-15T21:21:37.089Z,99994.88
2019-01-15T21:24:26.899Z,99999.28
2019-01-15T21:27:18.088Z,100016.11
2019-01-15T21:30:06.509Z,100021.39
2019-01-15T21:32:58.588Z,100008.01
2019-01-15T21:36:04.325Z,100021.47
2019-01-15T21:38:52.600Z,100026.23
2019-01-15T21:41:49.614Z,100031.22
2019-01-15T21:44:44.387Z,100030.45
2019-01-15T21:47:52.484Z,100032.69
2019-01-15T21:50:40.681Z,100036.42
2019-01-15T21:53:34.072Z,100034.08
2019-01-15T21:56:22.481Z,100032.27
2019-01-15T21:59:15.232Z,100039.22
2019-01-15T22:02:03.635Z,100032.33
2019-01-15T22:05:06.687Z,100047.60
2019-01-15T22:07:56.256Z,100047.66
2019-01-15T22:10:49.228Z,100045.52
2019-01-15T22:13:48.282Z,100041.21
2019-01-15T22:16:42.995Z,100034.24
2019-01-15T22:19:30.720Z,100029.91
2019-01-15T22:22:25.288Z,100031.13
2019-01-15T22:25:17.652Z,100029.41
2019-01-15T22:28:11.878Z,100020.86
2019-01-15T22:31:03.710Z,100023.56
2019-01-15T22:33:41.262Z,100028.95
2019-01-15T22:36:39.808Z,100024.67
2019-01-15T22:39:43.454Z,100019.88
2019-01-15T22:42:26.742Z,100020.33
2019-01-15T22:45:36.086Z,100031.27
2019-01-15T22:48:38.268Z,100023.34
2019-01-15T22:51:44.283Z,100025.98
2019-01-15T22:54:35.688Z,100017.22
2019-01-15T22:57:24.051Z,100019.30
2019-01-15T23:00:12.577Z,100017.16
2019-01-15T23:03:10.696Z,100021.16
2019-01-15T23:06:04.302Z,99995.11
2019-01-15T23:08:46.712Z,100021.09
2019-01-15T23:11:41.544Z,100032.12
2019-01-15T23:14:27.815Z,100024.24
2019-01-15T23:20:29.594Z,100025.89
2019-01-15T23:23:23.067Z,100025.98
2019-01-15T23:26:16.151Z,100030.74
2019-01-15T23:29:11.075Z,100018.53
2019-01-15T23:32:04.788Z,100027.31
2019-01-15T23:34:56.314Z,100021.21
2019-01-15T23:38:12.979Z,100019.54
2019-01-15T23:41:09.292Z,100020.77
2019-01-15T23:44:10.741Z,100014.27
2019-01-15T23:47:15.367Z,100007.68
2019-01-15T23:50:14.719Z,100013.94
2019-01-15T23:53:11.960Z,100015.95
2019-01-15T23:56:04.575Z,100023.34
2019-01-15T23:58:45.307Z,100002.92
